sensor_id;sensor_type;location;lat;lon;timestamp;temperature;humidity
10046;DHT22;5063;50.878;4.742;2024-03-25T00:00:14;3.80;99.90
10046;DHT22;5063;50.878;4.742;2024-03-25T00:02:41;3.90;99.90
10046;DHT22;5063;50.878;4.742;2024-03-25T00:05:07;4.00;99.90
10046;DHT22;5063;50.878;4.742;2024-03-25T00:07:37;4.20;99.90
10046;DHT22;5063;50.878;4.742;2024-03-25T00:10:04;3.80;99.90
10046;DHT22;5063;50.878;4.742;2024-03-25T00:12:32;3.70;99.90
10046;DHT22;5063;50.878;4.742;2024-03-25T00:14:58;3.90;99.90
10046;DHT22;5063;50.878;4.742;2024-03-25T00:17:23;3.70;99.90
10046;DHT22;5063;50.878;4.742;2024-03-25T00:19:49;3.60;99.90
10046;DHT22;5063;50.878;4.742;2024-03-25T00:22:19;3.60;99.90
10046;DHT22;5063;50.878;4.742;2024-03-25T00:24:45;3.60;99.90
10046;DHT22;5063;50.878;4.742;2024-03-25T00:27:13;3.50;99.90
10046;DHT22;5063;50.878;4.742;2024-03-25T00:29:38;3.50;99.90
10046;DHT22;5063;50.878;4.742;2024-03-25T00:32:05;3.00;99.90
10046;DHT22;5063;50.878;4.742;2024-03-25T00:34:31;3.60;99.90
10046;DHT22;5063;50.878;4.742;2024-03-25T00:36:58;3.30;99.90
10046;DHT22;5063;50.878;4.742;2024-03-25T00:39:24;3.20;99.90
10046;DHT22;5063;50.878;4.742;2024-03-25T00:41:49;3.30;99.90
10046;DHT22;5063;50.878;4.742;2024-03-25T00:44:15;3.10;99.90
10046;DHT22;5063;50.878;4.742;2024-03-25T00:46:41;3.10;99.90
10046;DHT22;5063;50.878;4.742;2024-03-25T00:49:08;3.20;99.90
10046;DHT22;5063;50.878;4.742;2024-03-25T00:51:34;2.90;99.90
10046;DHT22;5063;50.878;4.742;2024-03-25T00:53:59;3.20;99.90
10046;DHT22;5063;50.878;4.742;2024-03-25T00:56:25;3.20;99.90
10046;DHT22;5063;50.878;4.742;2024-03-25T00:58:52;3.20;99.90
10046;DHT22;5063;50.878;4.742;2024-03-25T01:01:18;3.60;99.90
10046;DHT22;5063;50.878;4.742;2024-03-25T01:03:44;3.20;99.90
10046;DHT22;5063;50.878;4.742;2024-03-25T01:06:10;3.20;99.90
10046;DHT22;5063;50.878;4.742;2024-03-25T01:08:35;3.30;99.90
10046;DHT22;5063;50.878;4.742;2024-03-25T01:11:01;3.10;99.90
10046;DHT22;5063;50.878;4.742;2024-03-25T01:13:27;3.10;99.90
10046;DHT22;5063;50.878;4.742;2024-03-25T01:15:52;3.20;99.90
10046;DHT22;5063;50.878;4.742;2024-03-25T01:18:18;3.40;99.90
10046;DHT22;5063;50.878;4.742;2024-03-25T01:20:44;3.10;99.90
10046;DHT22;5063;50.878;4.742;2024-03-25T01:23:12;3.10;99.90
10046;DHT22;5063;50.878;4.742;2024-03-25T01:25:38;3.00;99.90
10046;DHT22;5063;50.878;4.742;2024-03-25T01:28:04;3.00;99.90
10046;DHT22;5063;50.878;4.742;2024-03-25T01:30:29;3.10;99.90
10046;DHT22;5063;50.878;4.742;2024-03-25T01:32:56;2.90;99.90
10046;DHT22;5063;50.878;4.742;2024-03-25T01:35:21;2.90;99.90
10046;DHT22;5063;50.878;4.742;2024-03-25T01:37:47;2.70;99.90
10046;DHT22;5063;50.878;4.742;2024-03-25T01:40:14;2.40;99.90
10046;DHT22;5063;50.878;4.742;2024-03-25T01:42:40;2.90;99.90
10046;DHT22;5063;50.878;4.742;2024-03-25T01:45:07;2.80;99.90
10046;DHT22;5063;50.878;4.742;2024-03-25T01:47:34;2.80;99.90
10046;DHT22;5063;50.878;4.742;2024-03-25T01:50:01;3.10;99.90
10046;DHT22;5063;50.878;4.742;2024-03-25T01:52:29;3.00;99.90
10046;DHT22;5063;50.878;4.742;2024-03-25T01:54:56;3.10;99.90
10046;DHT22;5063;50.878;4.742;2024-03-25T01:57:21;2.80;99.90
10046;DHT22;5063;50.878;4.742;2024-03-25T01:59:47;2.90;99.90
10046;DHT22;5063;50.878;4.742;2024-03-25T02:02:13;3.00;99.90
10046;DHT22;5063;50.878;4.742;2024-03-25T02:04:40;2.70;99.90
10046;DHT22;5063;50.878;4.742;2024-03-25T02:07:07;2.80;99.90
10046;DHT22;5063;50.878;4.742;2024-03-25T02:09:35;2.90;99.90
10046;DHT22;5063;50.878;4.742;2024-03-25T02:12:02;3.00;99.90
10046;DHT22;5063;50.878;4.742;2024-03-25T02:14:28;2.80;99.90
10046;DHT22;5063;50.878;4.742;2024-03-25T02:16:53;2.70;99.90
10046;DHT22;5063;50.878;4.742;2024-03-25T02:19:21;2.60;99.90
10046;DHT22;5063;50.878;4.742;2024-03-25T02:21:48;2.60;99.90
10046;DHT22;5063;50.878;4.742;2024-03-25T02:24:15;2.40;99.90
10046;DHT22;5063;50.878;4.742;2024-03-25T02:26:43;2.50;99.90
10046;DHT22;5063;50.878;4.742;2024-03-25T02:29:12;2.40;99.90
10046;DHT22;5063;50.878;4.742;2024-03-25T02:31:37;2.70;99.90
10046;DHT22;5063;50.878;4.742;2024-03-25T02:34:03;2.50;99.90
10046;DHT22;5063;50.878;4.742;2024-03-25T02:36:29;2.60;99.90
10046;DHT22;5063;50.878;4.742;2024-03-25T02:38:55;2.60;99.90
10046;DHT22;5063;50.878;4.742;2024-03-25T02:41:20;2.60;99.90
10046;DHT22;5063;50.878;4.742;2024-03-25T02:43:48;2.60;99.90
10046;DHT22;5063;50.878;4.742;2024-03-25T02:46:14;2.80;99.90
10046;DHT22;5063;50.878;4.742;2024-03-25T02:48:40;2.60;99.90
10046;DHT22;5063;50.878;4.742;2024-03-25T02:51:05;2.60;99.90
10046;DHT22;5063;50.878;4.742;2024-03-25T02:53:31;2.80;99.90
10046;DHT22;5063;50.878;4.742;2024-03-25T02:55:57;2.60;99.90
10046;DHT22;5063;50.878;4.742;2024-03-25T02:58:22;2.40;99.90
10046;DHT22;5063;50.878;4.742;2024-03-25T03:00:48;2.50;99.90
10046;DHT22;5063;50.878;4.742;2024-03-25T03:03:14;2.50;99.90
10046;DHT22;5063;50.878;4.742;2024-03-25T03:05:39;2.40;99.90
10046;DHT22;5063;50.878;4.742;2024-03-25T03:08:05;2.60;99.90
10046;DHT22;5063;50.878;4.742;2024-03-25T03:10:31;2.90;99.90
10046;DHT22;5063;50.878;4.742;2024-03-25T03:12:57;3.00;99.90
10046;DHT22;5063;50.878;4.742;2024-03-25T03:15:22;3.00;99.90
10046;DHT22;5063;50.878;4.742;2024-03-25T03:17:48;2.80;99.90
10046;DHT22;5063;50.878;4.742;2024-03-25T03:20:14;2.80;99.90
10046;DHT22;5063;50.878;4.742;2024-03-25T03:22:39;2.80;99.90
10046;DHT22;5063;50.878;4.742;2024-03-25T03:25:05;2.70;99.90
10046;DHT22;5063;50.878;4.742;2024-03-25T03:27:31;2.90;99.90
10046;DHT22;5063;50.878;4.742;2024-03-25T03:29:57;2.60;99.90
10046;DHT22;5063;50.878;4.742;2024-03-25T03:32:23;2.60;99.90
10046;DHT22;5063;50.878;4.742;2024-03-25T03:34:49;2.60;99.90
10046;DHT22;5063;50.878;4.742;2024-03-25T03:37:15;2.90;99.90
10046;DHT22;5063;50.878;4.742;2024-03-25T03:39:40;2.70;99.90
10046;DHT22;5063;50.878;4.742;2024-03-25T03:42:06;2.70;99.90
10046;DHT22;5063;50.878;4.742;2024-03-25T03:44:32;2.90;99.90
10046;DHT22;5063;50.878;4.742;2024-03-25T03:46:57;2.80;99.90
10046;DHT22;5063;50.878;4.742;2024-03-25T03:49:23;2.70;99.90
10046;DHT22;5063;50.878;4.742;2024-03-25T03:51:49;2.80;99.90
10046;DHT22;5063;50.878;4.742;2024-03-25T03:54:15;2.90;99.90
10046;DHT22;5063;50.878;4.742;2024-03-25T03:56:40;2.90;99.90
10046;DHT22;5063;50.878;4.742;2024-03-25T03:59:06;3.10;99.90
10046;DHT22;5063;50.878;4.742;2024-03-25T04:01:32;3.00;99.90
10046;DHT22;5063;50.878;4.742;2024-03-25T04:03:58;3.00;99.90
10046;DHT22;5063;50.878;4.742;2024-03-25T04:06:24;3.00;99.90
10046;DHT22;5063;50.878;4.742;2024-03-25T04:08:50;3.00;99.90
10046;DHT22;5063;50.878;4.742;2024-03-25T04:11:16;3.10;99.90
10046;DHT22;5063;50.878;4.742;2024-03-25T04:13:41;3.30;99.90
10046;DHT22;5063;50.878;4.742;2024-03-25T04:16:07;3.20;99.90
10046;DHT22;5063;50.878;4.742;2024-03-25T04:18:33;3.10;99.90
10046;DHT22;5063;50.878;4.742;2024-03-25T04:20:59;3.30;99.90
10046;DHT22;5063;50.878;4.742;2024-03-25T04:23:26;3.40;99.90
10046;DHT22;5063;50.878;4.742;2024-03-25T04:25:52;3.40;99.90
10046;DHT22;5063;50.878;4.742;2024-03-25T04:28:18;3.40;99.90
10046;DHT22;5063;50.878;4.742;2024-03-25T04:30:50;3.50;99.90
10046;DHT22;5063;50.878;4.742;2024-03-25T04:33:16;3.60;99.90
10046;DHT22;5063;50.878;4.742;2024-03-25T04:35:42;3.20;99.90
10046;DHT22;5063;50.878;4.742;2024-03-25T04:38:08;3.60;99.90
10046;DHT22;5063;50.878;4.742;2024-03-25T04:40:35;3.60;99.90
10046;DHT22;5063;50.878;4.742;2024-03-25T04:43:01;3.60;99.90
10046;DHT22;5063;50.878;4.742;2024-03-25T04:45:28;3.20;99.90
10046;DHT22;5063;50.878;4.742;2024-03-25T04:47:53;3.60;99.90
10046;DHT22;5063;50.878;4.742;2024-03-25T04:50:19;3.20;99.90
10046;DHT22;5063;50.878;4.742;2024-03-25T04:52:45;3.20;99.90
10046;DHT22;5063;50.878;4.742;2024-03-25T04:55:10;3.40;99.90
10046;DHT22;5063;50.878;4.742;2024-03-25T04:57:36;3.10;99.90
10046;DHT22;5063;50.878;4.742;2024-03-25T05:00:02;3.30;99.90
10046;DHT22;5063;50.878;4.742;2024-03-25T05:02:29;3.10;99.90
10046;DHT22;5063;50.878;4.742;2024-03-25T05:04:54;3.10;99.90
10046;DHT22;5063;50.878;4.742;2024-03-25T05:07:20;3.10;99.90
10046;DHT22;5063;50.878;4.742;2024-03-25T05:09:46;3.10;99.90
10046;DHT22;5063;50.878;4.742;2024-03-25T05:12:11;3.10;99.90
10046;DHT22;5063;50.878;4.742;2024-03-25T05:14:37;3.30;99.90
10046;DHT22;5063;50.878;4.742;2024-03-25T05:17:02;3.10;99.90
10046;DHT22;5063;50.878;4.742;2024-03-25T05:19:31;3.10;99.90
10046;DHT22;5063;50.878;4.742;2024-03-25T05:21:56;3.00;99.90
10046;DHT22;5063;50.878;4.742;2024-03-25T05:24:22;3.20;99.90
10046;DHT22;5063;50.878;4.742;2024-03-25T05:26:48;3.10;99.90
10046;DHT22;5063;50.878;4.742;2024-03-25T05:29:13;3.10;99.90
10046;DHT22;5063;50.878;4.742;2024-03-25T05:31:39;3.40;99.90
10046;DHT22;5063;50.878;4.742;2024-03-25T05:34:20;3.30;99.90
10046;DHT22;5063;50.878;4.742;2024-03-25T05:36:46;3.20;99.90
10046;DHT22;5063;50.878;4.742;2024-03-25T05:39:11;3.30;99.90
10046;DHT22;5063;50.878;4.742;2024-03-25T05:41:37;3.30;99.90
10046;DHT22;5063;50.878;4.742;2024-03-25T05:44:03;3.50;99.90
10046;DHT22;5063;50.878;4.742;2024-03-25T05:46:29;3.30;99.90
10046;DHT22;5063;50.878;4.742;2024-03-25T05:48:54;3.50;99.90
10046;DHT22;5063;50.878;4.742;2024-03-25T05:51:20;3.50;99.90
10046;DHT22;5063;50.878;4.742;2024-03-25T05:53:46;3.80;99.90
10046;DHT22;5063;50.878;4.742;2024-03-25T05:56:11;3.80;99.90
10046;DHT22;5063;50.878;4.742;2024-03-25T05:58:37;4.10;99.90
10046;DHT22;5063;50.878;4.742;2024-03-25T06:01:03;4.20;99.90
10046;DHT22;5063;50.878;4.742;2024-03-25T06:03:30;4.30;99.90
10046;DHT22;5063;50.878;4.742;2024-03-25T06:05:56;4.40;99.90
10046;DHT22;5063;50.878;4.742;2024-03-25T06:08:21;4.50;99.90
10046;DHT22;5063;50.878;4.742;2024-03-25T06:10:53;4.80;99.90
10046;DHT22;5063;50.878;4.742;2024-03-25T06:13:19;5.00;99.90
10046;DHT22;5063;50.878;4.742;2024-03-25T06:15:45;4.80;99.90
10046;DHT22;5063;50.878;4.742;2024-03-25T06:18:11;5.20;99.90
10046;DHT22;5063;50.878;4.742;2024-03-25T06:20:37;5.30;99.90
10046;DHT22;5063;50.878;4.742;2024-03-25T06:23:03;5.30;99.90
10046;DHT22;5063;50.878;4.742;2024-03-25T06:25:29;5.40;99.90
10046;DHT22;5063;50.878;4.742;2024-03-25T06:27:55;5.90;99.90
10046;DHT22;5063;50.878;4.742;2024-03-25T06:30:21;5.70;99.90
10046;DHT22;5063;50.878;4.742;2024-03-25T06:33:06;5.90;99.90
10046;DHT22;5063;50.878;4.742;2024-03-25T06:35:50;6.00;99.90
10046;DHT22;5063;50.878;4.742;2024-03-25T06:38:17;6.20;99.90
10046;DHT22;5063;50.878;4.742;2024-03-25T06:40:45;6.30;99.90
10046;DHT22;5063;50.878;4.742;2024-03-25T06:43:11;6.50;99.90
10046;DHT22;5063;50.878;4.742;2024-03-25T06:45:37;6.60;99.90
10046;DHT22;5063;50.878;4.742;2024-03-25T06:48:03;6.50;99.90
10046;DHT22;5063;50.878;4.742;2024-03-25T06:50:29;6.80;99.90
10046;DHT22;5063;50.878;4.742;2024-03-25T06:52:54;6.80;99.90
10046;DHT22;5063;50.878;4.742;2024-03-25T06:55:20;6.90;99.90
10046;DHT22;5063;50.878;4.742;2024-03-25T06:57:51;7.00;99.90
10046;DHT22;5063;50.878;4.742;2024-03-25T07:00:17;7.00;99.90
10046;DHT22;5063;50.878;4.742;2024-03-25T07:02:42;7.00;99.90
10046;DHT22;5063;50.878;4.742;2024-03-25T07:05:08;7.00;99.90
10046;DHT22;5063;50.878;4.742;2024-03-25T07:07:34;7.10;99.90
10046;DHT22;5063;50.878;4.742;2024-03-25T07:10:00;7.20;99.90
10046;DHT22;5063;50.878;4.742;2024-03-25T07:12:26;7.30;99.90
10046;DHT22;5063;50.878;4.742;2024-03-25T07:14:52;7.60;99.90
10046;DHT22;5063;50.878;4.742;2024-03-25T07:17:17;7.90;99.90
10046;DHT22;5063;50.878;4.742;2024-03-25T07:19:43;8.00;99.90
10046;DHT22;5063;50.878;4.742;2024-03-25T07:22:10;8.30;99.90
10046;DHT22;5063;50.878;4.742;2024-03-25T07:24:36;8.60;99.90
10046;DHT22;5063;50.878;4.742;2024-03-25T07:27:02;8.80;99.90
10046;DHT22;5063;50.878;4.742;2024-03-25T07:29:28;9.10;99.90
10046;DHT22;5063;50.878;4.742;2024-03-25T07:31:53;9.60;99.90
10046;DHT22;5063;50.878;4.742;2024-03-25T07:34:19;10.00;99.90
10046;DHT22;5063;50.878;4.742;2024-03-25T07:36:45;10.80;99.90
10046;DHT22;5063;50.878;4.742;2024-03-25T07:39:11;11.90;99.90
10046;DHT22;5063;50.878;4.742;2024-03-25T07:41:37;12.60;99.90
10046;DHT22;5063;50.878;4.742;2024-03-25T07:44:03;12.80;99.90
10046;DHT22;5063;50.878;4.742;2024-03-25T07:46:30;13.20;99.90
10046;DHT22;5063;50.878;4.742;2024-03-25T07:48:56;13.30;99.90
10046;DHT22;5063;50.878;4.742;2024-03-25T07:51:21;13.50;99.90
10046;DHT22;5063;50.878;4.742;2024-03-25T07:53:47;13.20;99.90
10046;DHT22;5063;50.878;4.742;2024-03-25T07:56:14;13.80;99.90
10046;DHT22;5063;50.878;4.742;2024-03-25T07:58:41;14.20;99.90
10046;DHT22;5063;50.878;4.742;2024-03-25T08:01:06;14.50;99.90
10046;DHT22;5063;50.878;4.742;2024-03-25T08:03:32;14.70;99.90
10046;DHT22;5063;50.878;4.742;2024-03-25T08:05:59;14.70;99.90
10046;DHT22;5063;50.878;4.742;2024-03-25T08:08:24;14.20;99.90
10046;DHT22;5063;50.878;4.742;2024-03-25T08:10:50;14.20;99.90
10046;DHT22;5063;50.878;4.742;2024-03-25T08:13:18;14.40;99.90
10046;DHT22;5063;50.878;4.742;2024-03-25T08:15:45;14.70;99.90
10046;DHT22;5063;50.878;4.742;2024-03-25T08:18:11;14.90;99.90
10046;DHT22;5063;50.878;4.742;2024-03-25T08:20:37;14.70;99.90
10046;DHT22;5063;50.878;4.742;2024-03-25T08:23:03;14.70;99.90
10046;DHT22;5063;50.878;4.742;2024-03-25T08:25:29;14.50;99.90
10046;DHT22;5063;50.878;4.742;2024-03-25T08:27:55;14.40;99.90
10046;DHT22;5063;50.878;4.742;2024-03-25T08:30:20;14.40;99.90
10046;DHT22;5063;50.878;4.742;2024-03-25T08:32:46;14.40;99.90
10046;DHT22;5063;50.878;4.742;2024-03-25T08:35:12;14.10;99.90
10046;DHT22;5063;50.878;4.742;2024-03-25T08:37:38;14.30;99.90
10046;DHT22;5063;50.878;4.742;2024-03-25T08:40:04;14.30;99.90
10046;DHT22;5063;50.878;4.742;2024-03-25T08:42:30;14.70;99.90
10046;DHT22;5063;50.878;4.742;2024-03-25T08:44:56;14.70;99.90
10046;DHT22;5063;50.878;4.742;2024-03-25T08:47:22;15.20;99.90
10046;DHT22;5063;50.878;4.742;2024-03-25T08:49:48;16.00;99.90
10046;DHT22;5063;50.878;4.742;2024-03-25T08:52:13;16.50;99.90
10046;DHT22;5063;50.878;4.742;2024-03-25T08:54:39;16.70;99.90
10046;DHT22;5063;50.878;4.742;2024-03-25T08:57:05;16.80;99.90
10046;DHT22;5063;50.878;4.742;2024-03-25T08:59:30;17.30;99.90
10046;DHT22;5063;50.878;4.742;2024-03-25T09:01:56;17.30;99.90
10046;DHT22;5063;50.878;4.742;2024-03-25T09:04:21;17.60;99.90
10046;DHT22;5063;50.878;4.742;2024-03-25T09:06:48;17.50;99.90
10046;DHT22;5063;50.878;4.742;2024-03-25T09:09:13;17.50;99.90
10046;DHT22;5063;50.878;4.742;2024-03-25T09:11:58;17.70;99.90
10046;DHT22;5063;50.878;4.742;2024-03-25T09:14:24;17.40;99.90
10046;DHT22;5063;50.878;4.742;2024-03-25T09:16:50;16.20;99.90
10046;DHT22;5063;50.878;4.742;2024-03-25T09:19:16;15.20;99.90
10046;DHT22;5063;50.878;4.742;2024-03-25T09:21:41;14.00;99.90
10046;DHT22;5063;50.878;4.742;2024-03-25T09:24:07;13.10;99.90
10046;DHT22;5063;50.878;4.742;2024-03-25T09:26:33;12.60;99.90
10046;DHT22;5063;50.878;4.742;2024-03-25T09:28:59;12.30;99.90
10046;DHT22;5063;50.878;4.742;2024-03-25T09:31:24;12.20;99.90
10046;DHT22;5063;50.878;4.742;2024-03-25T09:33:50;12.00;99.90
10046;DHT22;5063;50.878;4.742;2024-03-25T09:36:16;11.80;99.90
10046;DHT22;5063;50.878;4.742;2024-03-25T09:38:41;12.00;99.90
10046;DHT22;5063;50.878;4.742;2024-03-25T09:41:08;12.10;99.90
10046;DHT22;5063;50.878;4.742;2024-03-25T09:43:44;12.10;99.90
10046;DHT22;5063;50.878;4.742;2024-03-25T09:46:13;12.20;99.90
10046;DHT22;5063;50.878;4.742;2024-03-25T09:48:40;12.20;99.90
10046;DHT22;5063;50.878;4.742;2024-03-25T09:51:07;12.10;99.90
10046;DHT22;5063;50.878;4.742;2024-03-25T09:53:34;12.00;99.90
10046;DHT22;5063;50.878;4.742;2024-03-25T09:56:00;12.00;99.90
10046;DHT22;5063;50.878;4.742;2024-03-25T09:58:26;12.10;99.90
10046;DHT22;5063;50.878;4.742;2024-03-25T10:00:53;11.80;99.90
10046;DHT22;5063;50.878;4.742;2024-03-25T10:03:20;12.00;99.90
10046;DHT22;5063;50.878;4.742;2024-03-25T10:05:46;12.00;99.90
10046;DHT22;5063;50.878;4.742;2024-03-25T10:08:12;12.00;99.90
10046;DHT22;5063;50.878;4.742;2024-03-25T10:10:38;11.90;99.90
10046;DHT22;5063;50.878;4.742;2024-03-25T10:13:04;12.00;99.90
10046;DHT22;5063;50.878;4.742;2024-03-25T10:15:31;12.20;99.90
10046;DHT22;5063;50.878;4.742;2024-03-25T10:17:57;12.30;99.90
10046;DHT22;5063;50.878;4.742;2024-03-25T10:20:23;12.40;99.90
10046;DHT22;5063;50.878;4.742;2024-03-25T10:22:49;12.50;99.90
10046;DHT22;5063;50.878;4.742;2024-03-25T10:25:31;12.60;99.90
10046;DHT22;5063;50.878;4.742;2024-03-25T10:28:00;12.70;99.90
10046;DHT22;5063;50.878;4.742;2024-03-25T10:30:27;12.70;99.90
10046;DHT22;5063;50.878;4.742;2024-03-25T10:33:06;12.80;99.90
10046;DHT22;5063;50.878;4.742;2024-03-25T10:35:34;13.00;99.90
10046;DHT22;5063;50.878;4.742;2024-03-25T10:38:02;13.00;99.90
10046;DHT22;5063;50.878;4.742;2024-03-25T10:40:30;12.90;99.90
10046;DHT22;5063;50.878;4.742;2024-03-25T10:43:10;12.80;99.90
10046;DHT22;5063;50.878;4.742;2024-03-25T10:45:44;12.70;99.90
10046;DHT22;5063;50.878;4.742;2024-03-25T10:48:26;12.70;99.90
10046;DHT22;5063;50.878;4.742;2024-03-25T10:50:57;12.60;99.90
10046;DHT22;5063;50.878;4.742;2024-03-25T10:53:24;12.60;99.90
10046;DHT22;5063;50.878;4.742;2024-03-25T10:55:52;12.60;99.90
10046;DHT22;5063;50.878;4.742;2024-03-25T10:58:20;12.60;99.90
10046;DHT22;5063;50.878;4.742;2024-03-25T11:00:46;12.70;99.90
10046;DHT22;5063;50.878;4.742;2024-03-25T11:03:13;12.60;99.90
10046;DHT22;5063;50.878;4.742;2024-03-25T11:05:39;12.70;99.90
10046;DHT22;5063;50.878;4.742;2024-03-25T11:08:16;12.70;99.90
10046;DHT22;5063;50.878;4.742;2024-03-25T11:10:46;12.60;99.90
10046;DHT22;5063;50.878;4.742;2024-03-25T11:13:19;12.60;99.90
10046;DHT22;5063;50.878;4.742;2024-03-25T11:15:46;12.90;99.90
10046;DHT22;5063;50.878;4.742;2024-03-25T11:18:13;13.20;99.90
10046;DHT22;5063;50.878;4.742;2024-03-25T11:20:39;13.50;99.90
10046;DHT22;5063;50.878;4.742;2024-03-25T11:23:12;13.60;99.90
10046;DHT22;5063;50.878;4.742;2024-03-25T11:25:40;13.80;99.90
10046;DHT22;5063;50.878;4.742;2024-03-25T11:28:07;13.80;99.90
10046;DHT22;5063;50.878;4.742;2024-03-25T11:30:33;13.80;99.90
10046;DHT22;5063;50.878;4.742;2024-03-25T11:33:02;13.90;99.90
10046;DHT22;5063;50.878;4.742;2024-03-25T11:35:30;13.80;99.90
10046;DHT22;5063;50.878;4.742;2024-03-25T11:37:56;14.10;99.90
10046;DHT22;5063;50.878;4.742;2024-03-25T11:40:22;14.10;99.90
10046;DHT22;5063;50.878;4.742;2024-03-25T11:42:48;14.10;99.90
10046;DHT22;5063;50.878;4.742;2024-03-25T11:45:14;13.90;99.90
10046;DHT22;5063;50.878;4.742;2024-03-25T11:47:42;14.00;99.90
10046;DHT22;5063;50.878;4.742;2024-03-25T11:50:10;14.10;99.90
10046;DHT22;5063;50.878;4.742;2024-03-25T11:52:36;14.10;99.90
10046;DHT22;5063;50.878;4.742;2024-03-25T11:55:03;14.20;99.90
10046;DHT22;5063;50.878;4.742;2024-03-25T11:57:29;14.20;99.90
10046;DHT22;5063;50.878;4.742;2024-03-25T11:59:57;14.20;99.90
10046;DHT22;5063;50.878;4.742;2024-03-25T12:02:22;14.10;99.90
10046;DHT22;5063;50.878;4.742;2024-03-25T12:04:48;14.20;99.90
10046;DHT22;5063;50.878;4.742;2024-03-25T12:07:14;14.40;99.90
10046;DHT22;5063;50.878;4.742;2024-03-25T12:09:41;14.50;99.90
10046;DHT22;5063;50.878;4.742;2024-03-25T12:12:25;14.50;99.90
10046;DHT22;5063;50.878;4.742;2024-03-25T12:14:52;14.50;99.90
10046;DHT22;5063;50.878;4.742;2024-03-25T12:17:19;14.40;99.90
10046;DHT22;5063;50.878;4.742;2024-03-25T12:20:02;14.40;99.90
10046;DHT22;5063;50.878;4.742;2024-03-25T12:22:30;14.50;99.90
10046;DHT22;5063;50.878;4.742;2024-03-25T12:25:07;14.50;99.90
10046;DHT22;5063;50.878;4.742;2024-03-25T12:27:34;14.40;99.90
10046;DHT22;5063;50.878;4.742;2024-03-25T12:30:06;14.50;99.90
10046;DHT22;5063;50.878;4.742;2024-03-25T12:32:39;14.20;99.90
10046;DHT22;5063;50.878;4.742;2024-03-25T12:35:16;14.20;99.90
10046;DHT22;5063;50.878;4.742;2024-03-25T12:37:44;14.30;99.90
10046;DHT22;5063;50.878;4.742;2024-03-25T12:40:12;14.40;99.90
10046;DHT22;5063;50.878;4.742;2024-03-25T12:42:38;14.30;99.90
10046;DHT22;5063;50.878;4.742;2024-03-25T12:45:05;14.30;99.90
10046;DHT22;5063;50.878;4.742;2024-03-25T12:47:31;14.20;99.90
10046;DHT22;5063;50.878;4.742;2024-03-25T12:49:58;14.40;99.90
10046;DHT22;5063;50.878;4.742;2024-03-25T12:52:23;14.70;99.90
10046;DHT22;5063;50.878;4.742;2024-03-25T12:54:49;14.90;99.90
10046;DHT22;5063;50.878;4.742;2024-03-25T12:57:15;15.00;99.90
10046;DHT22;5063;50.878;4.742;2024-03-25T12:59:41;15.10;99.90
10046;DHT22;5063;50.878;4.742;2024-03-25T13:02:12;15.30;99.90
10046;DHT22;5063;50.878;4.742;2024-03-25T13:04:38;15.40;99.90
10046;DHT22;5063;50.878;4.742;2024-03-25T13:07:05;15.30;99.90
10046;DHT22;5063;50.878;4.742;2024-03-25T13:09:31;15.30;99.90
10046;DHT22;5063;50.878;4.742;2024-03-25T13:11:58;15.20;99.90
10046;DHT22;5063;50.878;4.742;2024-03-25T13:14:24;15.10;99.90
10046;DHT22;5063;50.878;4.742;2024-03-25T13:16:49;15.20;99.90
10046;DHT22;5063;50.878;4.742;2024-03-25T13:19:15;15.00;99.90
10046;DHT22;5063;50.878;4.742;2024-03-25T13:21:41;14.90;99.90
10046;DHT22;5063;50.878;4.742;2024-03-25T13:24:08;14.50;99.90
10046;DHT22;5063;50.878;4.742;2024-03-25T13:26:33;14.50;99.90
10046;DHT22;5063;50.878;4.742;2024-03-25T13:28:59;14.60;99.90
10046;DHT22;5063;50.878;4.742;2024-03-25T13:31:25;14.90;99.90
10046;DHT22;5063;50.878;4.742;2024-03-25T13:33:51;14.90;99.90
10046;DHT22;5063;50.878;4.742;2024-03-25T13:36:17;14.80;99.90
10046;DHT22;5063;50.878;4.742;2024-03-25T13:38:43;14.90;99.90
10046;DHT22;5063;50.878;4.742;2024-03-25T13:41:15;15.10;99.90
10046;DHT22;5063;50.878;4.742;2024-03-25T13:43:43;15.10;99.90
10046;DHT22;5063;50.878;4.742;2024-03-25T13:46:09;15.00;99.90
10046;DHT22;5063;50.878;4.742;2024-03-25T13:48:37;15.00;99.90
10046;DHT22;5063;50.878;4.742;2024-03-25T13:51:03;14.90;99.90
10046;DHT22;5063;50.878;4.742;2024-03-25T13:53:29;14.80;99.90
10046;DHT22;5063;50.878;4.742;2024-03-25T13:55:55;14.80;99.90
10046;DHT22;5063;50.878;4.742;2024-03-25T13:58:20;14.80;99.90
10046;DHT22;5063;50.878;4.742;2024-03-25T14:00:46;14.70;99.90
10046;DHT22;5063;50.878;4.742;2024-03-25T14:03:12;14.50;99.90
10046;DHT22;5063;50.878;4.742;2024-03-25T14:05:39;14.60;99.90
10046;DHT22;5063;50.878;4.742;2024-03-25T14:08:05;14.70;99.90
10046;DHT22;5063;50.878;4.742;2024-03-25T14:10:30;14.80;99.90
10046;DHT22;5063;50.878;4.742;2024-03-25T14:12:56;14.80;99.90
10046;DHT22;5063;50.878;4.742;2024-03-25T14:15:22;14.70;99.90
10046;DHT22;5063;50.878;4.742;2024-03-25T14:17:48;14.50;99.90
10046;DHT22;5063;50.878;4.742;2024-03-25T14:20:14;14.20;99.90
10046;DHT22;5063;50.878;4.742;2024-03-25T14:22:40;14.20;99.90
10046;DHT22;5063;50.878;4.742;2024-03-25T14:25:06;14.20;99.90
10046;DHT22;5063;50.878;4.742;2024-03-25T14:27:31;14.50;99.90
10046;DHT22;5063;50.878;4.742;2024-03-25T14:29:57;14.60;99.90
10046;DHT22;5063;50.878;4.742;2024-03-25T14:32:24;14.80;99.90
10046;DHT22;5063;50.878;4.742;2024-03-25T14:34:50;14.70;99.90
10046;DHT22;5063;50.878;4.742;2024-03-25T14:37:16;14.70;99.90
10046;DHT22;5063;50.878;4.742;2024-03-25T14:39:42;14.70;99.90
10046;DHT22;5063;50.878;4.742;2024-03-25T14:42:08;14.50;99.90
10046;DHT22;5063;50.878;4.742;2024-03-25T14:44:36;14.50;99.90
10046;DHT22;5063;50.878;4.742;2024-03-25T14:47:03;14.70;99.90
10046;DHT22;5063;50.878;4.742;2024-03-25T14:49:29;14.80;99.90
10046;DHT22;5063;50.878;4.742;2024-03-25T14:51:54;14.80;99.90
10046;DHT22;5063;50.878;4.742;2024-03-25T14:54:20;14.90;99.90
10046;DHT22;5063;50.878;4.742;2024-03-25T14:56:46;14.90;99.90
10046;DHT22;5063;50.878;4.742;2024-03-25T14:59:13;14.90;99.90
10046;DHT22;5063;50.878;4.742;2024-03-25T15:01:39;14.90;99.90
10046;DHT22;5063;50.878;4.742;2024-03-25T15:04:05;15.00;99.90
10046;DHT22;5063;50.878;4.742;2024-03-25T15:06:31;14.90;99.90
10046;DHT22;5063;50.878;4.742;2024-03-25T15:09:00;14.90;99.90
10046;DHT22;5063;50.878;4.742;2024-03-25T15:11:26;14.80;99.90
10046;DHT22;5063;50.878;4.742;2024-03-25T15:13:53;14.60;99.90
10046;DHT22;5063;50.878;4.742;2024-03-25T15:16:19;14.50;99.90
10046;DHT22;5063;50.878;4.742;2024-03-25T15:18:45;14.40;99.90
10046;DHT22;5063;50.878;4.742;2024-03-25T15:21:11;14.30;99.90
10046;DHT22;5063;50.878;4.742;2024-03-25T15:23:37;14.20;99.90
10046;DHT22;5063;50.878;4.742;2024-03-25T15:26:03;14.30;99.90
10046;DHT22;5063;50.878;4.742;2024-03-25T15:28:29;14.20;99.90
10046;DHT22;5063;50.878;4.742;2024-03-25T15:30:57;14.10;99.90
10046;DHT22;5063;50.878;4.742;2024-03-25T15:33:23;13.90;99.90
10046;DHT22;5063;50.878;4.742;2024-03-25T15:35:50;13.80;99.90
10046;DHT22;5063;50.878;4.742;2024-03-25T15:38:16;13.80;99.90
10046;DHT22;5063;50.878;4.742;2024-03-25T15:40:43;13.80;99.90
10046;DHT22;5063;50.878;4.742;2024-03-25T15:43:11;13.80;99.90
10046;DHT22;5063;50.878;4.742;2024-03-25T15:45:37;13.80;99.90
10046;DHT22;5063;50.878;4.742;2024-03-25T15:48:03;13.80;99.90